Shelton, Idaho
Current Conditions -  °F | °C
As of 6:53 AM on Saturday 27 Dec 2014 (Local Time) from KIDA Reporting Station
Overcast Overcast  
Wind Chill: -6°   Ceiling: 600
Heat Index:   Visibility: 10mi
Dew Point:   Wind: 7mph
Humidity: 87%   Direction: 10°N
Pressure: 30.28"   Gusts: NA
Location:  43.498°N, 111.73°W
Report Text: KIDA 271353Z AUTO 01006KT 10SM OVC006 M14/M16 A3028 RMK AO2 SLP325 I1000 T11441161 $
Loading
Personal Weather Stations






























Interactive Weather Map New forecast layout! Learn more

10-Day Weather Forecast

Advertisements
Track Severe Weather on mobile